Welcome to Des Moines Iowa Weather. I am an independent private personal weather station on the Northwest Side of Des Moines, Iowa. Just East of Windsor Heights and just West of Glendale . This site is also mobile friendly.

There are no active watches, warnings or advisories


Visit our other weather sites:

Historical Data

Weather Station Setup



Weather Underground History page Text

Daily Summary for August 21, 2017 Units:  English    Metric   Both
« Previous Day
Next Day »
Daily Weekly Monthly Yearly Custom
  High: Low: Average:
Temperature: 82.8 °F 65.3 °F 69.8 °F
Dew Point: 75.0 °F 64.0 °F 66.9 °F
Humidity: 97 % 74 % 90 %
Wind Speed: 9.0 mph 0.0 mph 0.6 mph
Wind Gust: 26.0 mph - -
Wind:- - South
Pressure: 30.08 in 29.86 in -
Precipitation: 2.06 in    
Historical Graphs
 
 
Tabular Data for August 21, 2017
Time Temperature Dew Point Pressure Wind Wind Speed Wind Gust Humidity Rainfall Rate (Hourly)
00:07 71.8 °F 67.0 °F 29.93 in Calm     85 % 0.00 in
00:21 71.7 °F 67.0 °F 29.93 in Calm     85 % 0.00 in
00:37 71.7 °F 67.0 °F 29.95 in Calm   2.0 mph 84 % 0.00 in
00:52 71.7 °F 67.0 °F 29.94 in Calm   1.0 mph 84 % 0.00 in
01:07 71.6 °F 67.0 °F 29.94 in Calm     84 % 0.00 in
01:22 71.4 °F 66.0 °F 29.93 in Calm     83 % 0.00 in
01:37 71.3 °F 66.0 °F 29.94 in Calm     83 % 0.00 in
01:52 71.2 °F 65.0 °F 29.92 in East 2.0 mph 3.0 mph 81 % 0.00 in
02:07 71.6 °F 66.0 °F 29.95 in Calm   3.0 mph 82 % 0.00 in
02:22 71.4 °F 67.0 °F 29.94 in Calm   6.0 mph 85 % 0.04 in
02:37 70.5 °F 67.0 °F 29.93 in NW 2.0 mph 6.0 mph 88 % 0.08 in
02:52 69.7 °F 67.0 °F 29.98 in Calm   6.0 mph 90 % 0.14 in
03:07 69.0 °F 66.0 °F 30.01 in WSW 2.0 mph 6.0 mph 91 % 0.34 in
03:22 68.5 °F 66.0 °F 30.01 in East 1.0 mph 7.0 mph 92 % 0.50 in
03:34 68.0 °F 66.0 °F 30.03 in Calm   4.0 mph 93 % 0.68 in
03:49 67.4 °F 65.0 °F 30.02 in WNW 2.0 mph 9.0 mph 93 % 0.82 in
04:04 67.2 °F 66.0 °F 30.03 in NNE 3.0 mph 3.0 mph 94 % 0.82 in
04:19 66.9 °F 65.0 °F 30.00 in Calm   3.0 mph 94 % 0.71 in
04:35 66.8 °F 65.0 °F 30.04 in NW 2.0 mph 3.0 mph 95 % 0.46 in
04:50 66.8 °F 65.0 °F 30.04 in Calm   4.0 mph 95 % 0.34 in
05:04 66.8 °F 65.0 °F 30.01 in Calm   10.0 mph 95 % 0.18 in
05:20 67.3 °F 66.0 °F 30.03 in ENE 4.0 mph 10.0 mph 95 % 0.14 in
05:35 67.0 °F 66.0 °F 30.02 in ESE 2.0 mph 11.0 mph 95 % 0.17 in
05:50 66.8 °F 65.0 °F 30.01 in NE 1.0 mph 8.0 mph 95 % 0.16 in
06:05 66.6 °F 65.0 °F 30.00 in WSW 1.0 mph 9.0 mph 95 % 0.14 in
06:20 66.6 °F 65.0 °F 30.03 in Calm   12.0 mph 95 % 0.11 in
06:35 66.6 °F 65.0 °F 30.05 in WNW 2.0 mph 6.0 mph 94 % 0.08 in
06:50 66.6 °F 65.0 °F 30.08 in Calm   4.0 mph 94 % 0.07 in
07:05 66.6 °F 65.0 °F 30.07 in Calm   4.0 mph 94 % 0.08 in
07:20 66.5 °F 65.0 °F 30.06 in Calm     94 % 0.10 in
07:35 66.4 °F 65.0 °F 30.04 in Calm   2.0 mph 95 % 0.09 in
07:50 66.2 °F 65.0 °F 30.03 in Calm   2.0 mph 95 % 0.06 in
08:05 66.1 °F 65.0 °F 30.03 in Calm   2.0 mph 95 % 0.05 in
08:20 66.0 °F 65.0 °F 30.03 in Calm   3.0 mph 95 % 0.05 in
08:35 66.0 °F 65.0 °F 30.02 in NNW 2.0 mph 3.0 mph 95 % 0.04 in
08:50 66.0 °F 65.0 °F 30.00 in South 1.0 mph 7.0 mph 95 % 0.05 in
09:05 65.9 °F 65.0 °F 29.99 in Calm   3.0 mph 95 % 0.03 in
09:20 66.0 °F 65.0 °F 29.98 in Calm   1.0 mph 95 % 0.01 in
09:35 66.0 °F 65.0 °F 29.99 in Calm   2.0 mph 95 % 0.01 in
09:50 65.9 °F 65.0 °F 30.02 in Calm   8.0 mph 95 % 0.01 in
10:05 65.9 °F 65.0 °F 30.02 in Calm   9.0 mph 95 % 0.05 in
10:20 66.0 °F 65.0 °F 30.01 in Calm   4.0 mph 95 % 0.08 in
10:35 66.0 °F 65.0 °F 29.98 in Calm   3.0 mph 96 % 0.08 in
10:50 66.3 °F 65.0 °F 29.96 in Calm   3.0 mph 96 % 0.08 in
11:05 66.9 °F 66.0 °F 29.96 in Calm   2.0 mph 96 % 0.04 in
11:20 68.0 °F 67.0 °F 29.93 in Calm   3.0 mph 96 % 0.01 in
11:35 68.5 °F 67.0 °F 29.92 in Calm     96 % 0.01 in
11:50 69.3 °F 68.0 °F 29.93 in Calm   3.0 mph 96 % 0.00 in
12:05 69.2 °F 68.0 °F 29.95 in Calm     96 % 0.00 in
12:20 68.9 °F 68.0 °F 29.93 in Calm   2.0 mph 96 % 0.00 in
12:35 69.2 °F 68.0 °F 29.93 in Calm   3.0 mph 96 % 0.00 in
12:50 69.4 °F 68.0 °F 29.93 in Calm   3.0 mph 96 % 0.00 in
13:05 69.6 °F 69.0 °F 29.92 in Calm     96 % 0.00 in
13:20 69.6 °F 69.0 °F 29.92 in Calm   3.0 mph 96 % 0.00 in
13:35 69.7 °F 69.0 °F 29.92 in Calm     96 % 0.00 in
13:50 70.1 °F 69.0 °F 29.91 in Calm   3.0 mph 96 % 0.00 in
14:05 71.0 °F 70.0 °F 29.91 in Calm   2.0 mph 96 % 0.00 in
14:20 72.4 °F 72.0 °F 29.91 in Calm   3.0 mph 97 % 0.00 in
14:35 77.5 °F 72.0 °F 29.90 in SE 1.0 mph 6.0 mph 82 % 0.00 in
14:51 78.4 °F 71.0 °F 29.89 in SSE 2.0 mph 5.0 mph 78 % 0.00 in
15:06 77.5 °F 71.0 °F 29.89 in Calm   5.0 mph 79 % 0.00 in
15:21 77.7 °F 71.0 °F 29.88 in SSE 2.0 mph 4.0 mph 80 % 0.00 in
15:36 78.3 °F 71.0 °F 29.88 in Calm   4.0 mph 79 % 0.00 in
15:51 78.9 °F 73.0 °F 29.87 in Calm   9.0 mph 81 % 0.00 in
16:06 80.1 °F 73.0 °F 29.86 in Calm   4.0 mph 80 % 0.00 in
16:21 82.1 °F 74.0 °F 29.87 in Calm   5.0 mph 77 % 0.00 in
16:36 81.7 °F 74.0 °F 29.88 in Calm   3.0 mph 77 % 0.00 in
16:51 82.3 °F 74.0 °F 29.87 in Calm   4.0 mph 76 % 0.00 in
17:06 82.4 °F 74.0 °F 29.87 in Calm   2.0 mph 75 % 0.00 in
17:21 82.5 °F 74.0 °F 29.87 in Calm   8.0 mph 75 % 0.00 in
17:36 82.8 °F 74.0 °F 29.87 in Calm   2.0 mph 75 % 0.00 in
17:51 82.6 °F 74.0 °F 29.93 in Calm   5.0 mph 74 % 0.00 in
18:06 81.8 °F 75.0 °F 29.93 in SSW 3.0 mph 5.0 mph 79 % 0.02 in
18:21 79.0 °F 72.0 °F 29.95 in NE 5.0 mph 26.0 mph 78 % 0.03 in
18:36 70.4 °F 64.0 °F 29.94 in WNW 1.0 mph 15.0 mph 81 % 0.16 in
18:51 67.4 °F 64.0 °F 29.94 in East 9.0 mph 9.0 mph 88 % 0.22 in
19:06 66.7 °F 64.0 °F 29.94 in Calm   3.0 mph 90 % 0.28 in
19:21 66.3 °F 64.0 °F 29.93 in Calm   3.0 mph 92 % 0.29 in
19:36 66.2 °F 64.0 °F 29.93 in Calm   2.0 mph 92 % 0.16 in
19:51 66.2 °F 64.0 °F 29.91 in Calm   5.0 mph 93 % 0.12 in
20:06 66.2 °F 65.0 °F 29.91 in Calm   2.0 mph 94 % 0.03 in
20:21 66.1 °F 64.0 °F 29.89 in Calm   1.0 mph 94 % 0.02 in
20:37 66.0 °F 64.0 °F 29.88 in Calm   3.0 mph 94 % 0.01 in
20:51 65.8 °F 64.0 °F 29.88 in Calm   2.0 mph 94 % 0.00 in
21:06 65.6 °F 64.0 °F 29.90 in Calm   1.0 mph 94 % 0.00 in
21:21 65.6 °F 64.0 °F 29.92 in NE 4.0 mph 4.0 mph 94 % 0.00 in
21:36 65.7 °F 64.0 °F 29.92 in Calm   3.0 mph 95 % 0.00 in
21:51 65.7 °F 64.0 °F 29.92 in Calm   2.0 mph 95 % 0.01 in
22:06 65.7 °F 64.0 °F 29.92 in Calm   1.0 mph 95 % 0.01 in
22:39 65.9 °F 65.0 °F 29.91 in Calm   1.0 mph 95 % 0.01 in
22:51 65.8 °F 64.0 °F 29.90 in West 1.0 mph 2.0 mph 95 % 0.00 in
23:06 65.7 °F 65.0 °F 29.91 in Calm   4.0 mph 96 % 0.00 in
23:21 65.6 °F 65.0 °F 29.91 in Calm   4.0 mph 96 % 0.01 in
23:36 65.4 °F 64.0 °F 29.88 in Calm   3.0 mph 95 % 0.01 in
23:51 65.3 °F 64.0 °F 29.88 in Calm   2.0 mph 96 % 0.01 in
Des Moines Weather and Climate
Compliments of Weather Underground - 3 mb

Script developed by  Jim McMurry - jmcmurry@mwt.net Adapted for the template by  Wim van der Kuil - Leuven-Template.eu

You find our weather info also at:

Weather Underground

Equipment we use:

Weather-station
Davis VP2 Plus

Weather-program
Davis Weatherlink.Com

Weather-server
iMac (Retina 4K, 21.5-inch, Late 2015)

Provider
Hostmonster.com

Davis VP2 Plus

Davis Weatherlink.Com

iMac (Retina 4K, 21.5-inch, Late 2015)

Hostmonster.com